<?xml version="1.0" encoding="UTF-8" standalone="no" ?>
<gpx xmlns="http://www.topografix.com/GPX/1/1" xmlns:xsi="http://www.w3.org/2001/XMLSchema-instance" xsi:schemaLocation="http://www.topografix.com/GPX/1/1 http://www.topografix.com/GPX/1/1/gpx.xsd" version="1.1" creator="VisuGPX - https://www.visugpx.com">
  <metadata>
    <name>Transcaucasie: Géorgie + Arménie</name>
  </metadata>
  <trk>
    <name><![CDATA[Tour d'Europe: étape 439]]></name>
    <extensions>
      <line xmlns="http://www.topografix.com/GPX/gpx_style/0/2">
        <color>FF0000</color>
        <width>4</width>
      </line>
    </extensions>
    <trkseg>
      <trkpt lat="42.35562" lon="42.19285">
        <ele>126.516464</ele>
        <time>2021-09-10T05:30:32.051Z</time>
      </trkpt>
      <trkpt lat="42.35654" lon="42.19122">
        <ele>131.386933</ele>
        <time>2021-09-10T05:38:40.878Z</time>
      </trkpt>
      <trkpt lat="42.35846" lon="42.19102">
        <ele>141.859267</ele>
        <time>2021-09-10T05:40:32.871Z</time>
      </trkpt>
      <trkpt lat="42.35982" lon="42.19258">
        <ele>147.601599</ele>
        <time>2021-09-10T05:42:01.861Z</time>
      </trkpt>
      <trkpt lat="42.36142" lon="42.19112">
        <ele>158.870884</ele>
        <time>2021-09-10T05:43:37.877Z</time>
      </trkpt>
      <trkpt lat="42.36283" lon="42.18899">
        <ele>160.128004</ele>
        <time>2021-09-10T05:44:42.910Z</time>
      </trkpt>
      <trkpt lat="42.36411" lon="42.18682">
        <ele>168.539773</ele>
        <time>2021-09-10T05:46:16.876Z</time>
      </trkpt>
      <trkpt lat="42.36575" lon="42.18767">
        <ele>175.187097</ele>
        <time>2021-09-10T05:47:45.933Z</time>
      </trkpt>
      <trkpt lat="42.36643" lon="42.18999">
        <ele>179.94319</ele>
        <time>2021-09-10T05:49:55.862Z</time>
      </trkpt>
      <trkpt lat="42.3662" lon="42.19269">
        <ele>180.044024</ele>
        <time>2021-09-10T05:51:20.881Z</time>
      </trkpt>
      <trkpt lat="42.36707" lon="42.19404">
        <ele>182.987687</ele>
        <time>2021-09-10T05:52:56.891Z</time>
      </trkpt>
      <trkpt lat="42.36874" lon="42.19242">
        <ele>166.101726</ele>
        <time>2021-09-10T05:53:52.855Z</time>
      </trkpt>
      <trkpt lat="42.36945" lon="42.19243">
        <ele>146.640992</ele>
        <time>2021-09-10T05:57:44.888Z</time>
      </trkpt>
      <trkpt lat="42.36779" lon="42.19406">
        <ele>160.779552</ele>
        <time>2021-09-10T05:59:06.893Z</time>
      </trkpt>
      <trkpt lat="42.36595" lon="42.19498">
        <ele>146.325605</ele>
        <time>2021-09-10T06:00:31.922Z</time>
      </trkpt>
      <trkpt lat="42.36581" lon="42.19545">
        <ele>128.151529</ele>
        <time>2021-09-10T06:05:55.854Z</time>
      </trkpt>
      <trkpt lat="42.36677" lon="42.19485">
        <ele>151.385042</ele>
        <time>2021-09-10T06:25:08.840Z</time>
      </trkpt>
      <trkpt lat="42.36875" lon="42.19328">
        <ele>150.396165</ele>
        <time>2021-09-10T06:26:14.883Z</time>
      </trkpt>
      <trkpt lat="42.37097" lon="42.19224">
        <ele>141.260416</ele>
        <time>2021-09-10T06:30:34.880Z</time>
      </trkpt>
      <trkpt lat="42.37294" lon="42.19317">
        <ele>132.722655</ele>
        <time>2021-09-10T06:31:13.879Z</time>
      </trkpt>
      <trkpt lat="42.37472" lon="42.19527">
        <ele>126.970522</ele>
        <time>2021-09-10T06:32:09.879Z</time>
      </trkpt>
      <trkpt lat="42.37601" lon="42.19755">
        <ele>130.090636</ele>
        <time>2021-09-10T06:32:52.876Z</time>
      </trkpt>
      <trkpt lat="42.37714" lon="42.20018">
        <ele>134.466731</ele>
        <time>2021-09-10T06:33:45.871Z</time>
      </trkpt>
      <trkpt lat="42.37823" lon="42.20274">
        <ele>138.211265</ele>
        <time>2021-09-10T06:34:36.884Z</time>
      </trkpt>
      <trkpt lat="42.37945" lon="42.2044">
        <ele>134.047866</ele>
        <time>2021-09-10T06:35:35.876Z</time>
      </trkpt>
      <trkpt lat="42.38142" lon="42.20439">
        <ele>140.280727</ele>
        <time>2021-09-10T06:37:07.872Z</time>
      </trkpt>
      <trkpt lat="42.38337" lon="42.20346">
        <ele>138.988573</ele>
        <time>2021-09-10T06:38:17.892Z</time>
      </trkpt>
      <trkpt lat="42.38459" lon="42.20144">
        <ele>139.641925</ele>
        <time>2021-09-10T06:39:12.854Z</time>
      </trkpt>
      <trkpt lat="42.38701" lon="42.20082">
        <ele>140.690156</ele>
        <time>2021-09-10T06:45:00.873Z</time>
      </trkpt>
      <trkpt lat="42.38896" lon="42.20112">
        <ele>151.718131</ele>
        <time>2021-09-10T06:46:53.845Z</time>
      </trkpt>
      <trkpt lat="42.39101" lon="42.1999">
        <ele>161.94777</ele>
        <time>2021-09-10T06:48:13.862Z</time>
      </trkpt>
      <trkpt lat="42.39282" lon="42.20063">
        <ele>149.289415</ele>
        <time>2021-09-10T06:48:58.861Z</time>
      </trkpt>
      <trkpt lat="42.39434" lon="42.19917">
        <ele>140.447305</ele>
        <time>2021-09-10T06:49:57.866Z</time>
      </trkpt>
      <trkpt lat="42.39639" lon="42.19831">
        <ele>141.045057</ele>
        <time>2021-09-10T06:51:32.871Z</time>
      </trkpt>
      <trkpt lat="42.39822" lon="42.19934">
        <ele>143.674556</ele>
        <time>2021-09-10T06:53:16.855Z</time>
      </trkpt>
      <trkpt lat="42.39994" lon="42.20054">
        <ele>149.422946</ele>
        <time>2021-09-10T06:54:33.864Z</time>
      </trkpt>
      <trkpt lat="42.40166" lon="42.19939">
        <ele>154.513706</ele>
        <time>2021-09-10T06:55:33.855Z</time>
      </trkpt>
      <trkpt lat="42.40293" lon="42.19713">
        <ele>151.587211</ele>
        <time>2021-09-10T06:56:14.863Z</time>
      </trkpt>
      <trkpt lat="42.40462" lon="42.19526">
        <ele>147.975085</ele>
        <time>2021-09-10T06:56:43.910Z</time>
      </trkpt>
      <trkpt lat="42.40622" lon="42.19346">
        <ele>151.923109</ele>
        <time>2021-09-10T06:57:49.882Z</time>
      </trkpt>
      <trkpt lat="42.40802" lon="42.19301">
        <ele>165.664349</ele>
        <time>2021-09-10T07:00:17.885Z</time>
      </trkpt>
      <trkpt lat="42.40958" lon="42.19167">
        <ele>174.671149</ele>
        <time>2021-09-10T07:02:31.868Z</time>
      </trkpt>
      <trkpt lat="42.41138" lon="42.19147">
        <ele>179.211117</ele>
        <time>2021-09-10T07:04:41.855Z</time>
      </trkpt>
      <trkpt lat="42.4133" lon="42.1911">
        <ele>185.848472</ele>
        <time>2021-09-10T07:06:01.887Z</time>
      </trkpt>
      <trkpt lat="42.41518" lon="42.1907">
        <ele>199.224478</ele>
        <time>2021-09-10T07:07:56.867Z</time>
      </trkpt>
      <trkpt lat="42.41665" lon="42.18824">
        <ele>199.389381</ele>
        <time>2021-09-10T07:09:24.905Z</time>
      </trkpt>
      <trkpt lat="42.41746" lon="42.18541">
        <ele>191.072315</ele>
        <time>2021-09-10T07:12:07.864Z</time>
      </trkpt>
      <trkpt lat="42.41899" lon="42.18261">
        <ele>176.897707</ele>
        <time>2021-09-10T07:12:42.865Z</time>
      </trkpt>
      <trkpt lat="42.42078" lon="42.18082">
        <ele>162.358814</ele>
        <time>2021-09-10T07:13:45.849Z</time>
      </trkpt>
      <trkpt lat="42.42303" lon="42.17966">
        <ele>143.013749</ele>
        <time>2021-09-10T07:14:23.859Z</time>
      </trkpt>
      <trkpt lat="42.42434" lon="42.17766">
        <ele>130.66886</ele>
        <time>2021-09-10T07:15:32.853Z</time>
      </trkpt>
      <trkpt lat="42.42452" lon="42.17564">
        <ele>135.258159</ele>
        <time>2021-09-10T07:17:28.853Z</time>
      </trkpt>
      <trkpt lat="42.42604" lon="42.17716">
        <ele>149.980939</ele>
        <time>2021-09-10T07:19:51.881Z</time>
      </trkpt>
      <trkpt lat="42.42773" lon="42.17588">
        <ele>170.038884</ele>
        <time>2021-09-10T07:22:23.870Z</time>
      </trkpt>
      <trkpt lat="42.42932" lon="42.17427">
        <ele>155.532625</ele>
        <time>2021-09-10T07:23:35.835Z</time>
      </trkpt>
      <trkpt lat="42.43102" lon="42.17421">
        <ele>154.032907</ele>
        <time>2021-09-10T07:24:47.828Z</time>
      </trkpt>
      <trkpt lat="42.43136" lon="42.17151">
        <ele>132.479684</ele>
        <time>2021-09-10T07:25:27.837Z</time>
      </trkpt>
      <trkpt lat="42.42996" lon="42.16926">
        <ele>123.029237</ele>
        <time>2021-09-10T07:26:23.827Z</time>
      </trkpt>
      <trkpt lat="42.42855" lon="42.16734">
        <ele>130.551308</ele>
        <time>2021-09-10T07:27:51.825Z</time>
      </trkpt>
      <trkpt lat="42.42697" lon="42.16595">
        <ele>138.393091</ele>
        <time>2021-09-10T07:29:17.861Z</time>
      </trkpt>
      <trkpt lat="42.42578" lon="42.16373">
        <ele>135.377052</ele>
        <time>2021-09-10T07:30:42.839Z</time>
      </trkpt>
      <trkpt lat="42.4253" lon="42.16111">
        <ele>132.310904</ele>
        <time>2021-09-10T07:34:58.870Z</time>
      </trkpt>
      <trkpt lat="42.4273" lon="42.16008">
        <ele>124.864308</ele>
        <time>2021-09-10T07:37:20.861Z</time>
      </trkpt>
      <trkpt lat="42.42845" lon="42.15795">
        <ele>119.117429</ele>
        <time>2021-09-10T07:38:41.862Z</time>
      </trkpt>
      <trkpt lat="42.42805" lon="42.15547">
        <ele>112.886642</ele>
        <time>2021-09-10T07:40:18.844Z</time>
      </trkpt>
      <trkpt lat="42.42837" lon="42.15289">
        <ele>124.342527</ele>
        <time>2021-09-10T07:42:15.853Z</time>
      </trkpt>
      <trkpt lat="42.42909" lon="42.15036">
        <ele>132.898728</ele>
        <time>2021-09-10T07:44:10.862Z</time>
      </trkpt>
      <trkpt lat="42.43065" lon="42.14861">
        <ele>133.628581</ele>
        <time>2021-09-10T07:46:09.854Z</time>
      </trkpt>
      <trkpt lat="42.43263" lon="42.14755">
        <ele>115.57017</ele>
        <time>2021-09-10T07:52:26.847Z</time>
      </trkpt>
      <trkpt lat="42.43453" lon="42.14717">
        <ele>113.089297</ele>
        <time>2021-09-10T08:02:52.844Z</time>
      </trkpt>
      <trkpt lat="42.43601" lon="42.14555">
        <ele>118.470285</ele>
        <time>2021-09-10T08:04:50.840Z</time>
      </trkpt>
      <trkpt lat="42.43785" lon="42.14512">
        <ele>121.201016</ele>
        <time>2021-09-10T08:06:32.846Z</time>
      </trkpt>
      <trkpt lat="42.43985" lon="42.14514">
        <ele>116.362802</ele>
        <time>2021-09-10T08:07:59.882Z</time>
      </trkpt>
      <trkpt lat="42.44152" lon="42.14476">
        <ele>117.637112</ele>
        <time>2021-09-10T08:10:28.876Z</time>
      </trkpt>
      <trkpt lat="42.4431" lon="42.14622">
        <ele>131.90545</ele>
        <time>2021-09-10T08:12:47.846Z</time>
      </trkpt>
      <trkpt lat="42.44482" lon="42.14574">
        <ele>142.179107</ele>
        <time>2021-09-10T08:15:06.850Z</time>
      </trkpt>
      <trkpt lat="42.4467" lon="42.14568">
        <ele>159.57107</ele>
        <time>2021-09-10T08:17:34.839Z</time>
      </trkpt>
      <trkpt lat="42.44858" lon="42.14655">
        <ele>161.344384</ele>
        <time>2021-09-10T08:19:35.839Z</time>
      </trkpt>
      <trkpt lat="42.45029" lon="42.14737">
        <ele>162.076902</ele>
        <time>2021-09-10T08:21:27.842Z</time>
      </trkpt>
      <trkpt lat="42.45192" lon="42.14858">
        <ele>165.077564</ele>
        <time>2021-09-10T08:23:40.888Z</time>
      </trkpt>
      <trkpt lat="42.45373" lon="42.14947">
        <ele>170.268624</ele>
        <time>2021-09-10T08:26:43.834Z</time>
      </trkpt>
      <trkpt lat="42.45565" lon="42.14967">
        <ele>177.940148</ele>
        <time>2021-09-10T08:29:01.850Z</time>
      </trkpt>
      <trkpt lat="42.4573" lon="42.15056">
        <ele>182.425065</ele>
        <time>2021-09-10T08:30:17.846Z</time>
      </trkpt>
      <trkpt lat="42.45898" lon="42.15181">
        <ele>185.840273</ele>
        <time>2021-09-10T08:31:53.837Z</time>
      </trkpt>
      <trkpt lat="42.46097" lon="42.15227">
        <ele>180.288667</ele>
        <time>2021-09-10T08:33:13.836Z</time>
      </trkpt>
      <trkpt lat="42.46271" lon="42.15333">
        <ele>194.473696</ele>
        <time>2021-09-10T08:35:56.847Z</time>
      </trkpt>
      <trkpt lat="42.46395" lon="42.1553">
        <ele>214.831882</ele>
        <time>2021-09-10T08:42:20.856Z</time>
      </trkpt>
      <trkpt lat="42.46536" lon="42.15443">
        <ele>199.497328</ele>
        <time>2021-09-10T08:43:37.857Z</time>
      </trkpt>
      <trkpt lat="42.46588" lon="42.15153">
        <ele>179.652558</ele>
        <time>2021-09-10T08:44:22.828Z</time>
      </trkpt>
      <trkpt lat="42.46724" lon="42.14854">
        <ele>149.722835</ele>
        <time>2021-09-10T08:45:04.871Z</time>
      </trkpt>
      <trkpt lat="42.46793" lon="42.14615">
        <ele>159.283692</ele>
        <time>2021-09-10T08:47:08.845Z</time>
      </trkpt>
      <trkpt lat="42.46899" lon="42.144">
        <ele>180.656416</ele>
        <time>2021-09-10T08:49:41.857Z</time>
      </trkpt>
      <trkpt lat="42.4708" lon="42.14275">
        <ele>176.419231</ele>
        <time>2021-09-10T08:51:17.841Z</time>
      </trkpt>
      <trkpt lat="42.47266" lon="42.14197">
        <ele>185.253973</ele>
        <time>2021-09-10T08:53:30.826Z</time>
      </trkpt>
      <trkpt lat="42.47368" lon="42.13999">
        <ele>200.241027</ele>
        <time>2021-09-10T08:54:24.835Z</time>
      </trkpt>
      <trkpt lat="42.47294" lon="42.13743">
        <ele>192.153076</ele>
        <time>2021-09-10T08:55:39.846Z</time>
      </trkpt>
      <trkpt lat="42.47212" lon="42.13466">
        <ele>176.862008</ele>
        <time>2021-09-10T08:56:39.831Z</time>
      </trkpt>
      <trkpt lat="42.47063" lon="42.13183">
        <ele>169.764752</ele>
        <time>2021-09-10T08:57:20.860Z</time>
      </trkpt>
      <trkpt lat="42.47158" lon="42.12933">
        <ele>150.80562</ele>
        <time>2021-09-10T08:58:11.847Z</time>
      </trkpt>
      <trkpt lat="42.4722" lon="42.12645">
        <ele>161.011199</ele>
        <time>2021-09-10T08:59:16.826Z</time>
      </trkpt>
      <trkpt lat="42.47305" lon="42.12412">
        <ele>176.243071</ele>
        <time>2021-09-10T09:01:51.873Z</time>
      </trkpt>
      <trkpt lat="42.47334" lon="42.1216">
        <ele>185.966515</ele>
        <time>2021-09-10T09:04:27.860Z</time>
      </trkpt>
      <trkpt lat="42.47291" lon="42.11878">
        <ele>180.155161</ele>
        <time>2021-09-10T09:04:59.852Z</time>
      </trkpt>
      <trkpt lat="42.47231" lon="42.11561">
        <ele>171.158549</ele>
        <time>2021-09-10T09:05:38.841Z</time>
      </trkpt>
      <trkpt lat="42.4722" lon="42.11236">
        <ele>162.664142</ele>
        <time>2021-09-10T09:06:07.845Z</time>
      </trkpt>
      <trkpt lat="42.47121" lon="42.10981">
        <ele>162.71491</ele>
        <time>2021-09-10T09:06:48.844Z</time>
      </trkpt>
      <trkpt lat="42.47319" lon="42.10875">
        <ele>160.023918</ele>
        <time>2021-09-10T09:07:37.850Z</time>
      </trkpt>
      <trkpt lat="42.47398" lon="42.10598">
        <ele>162.018045</ele>
        <time>2021-09-10T09:08:20.839Z</time>
      </trkpt>
      <trkpt lat="42.4763" lon="42.10689">
        <ele>154.930185</ele>
        <time>2021-09-10T09:08:53.857Z</time>
      </trkpt>
      <trkpt lat="42.47786" lon="42.10903">
        <ele>148.011658</ele>
        <time>2021-09-10T09:09:37.854Z</time>
      </trkpt>
      <trkpt lat="42.4795" lon="42.11099">
        <ele>150.416291</ele>
        <time>2021-09-10T09:10:39.887Z</time>
      </trkpt>
      <trkpt lat="42.48106" lon="42.1128">
        <ele>140.798344</ele>
        <time>2021-09-10T09:11:45.859Z</time>
      </trkpt>
      <trkpt lat="42.48314" lon="42.11353">
        <ele>132.544249</ele>
        <time>2021-09-10T09:12:43.843Z</time>
      </trkpt>
      <trkpt lat="42.48529" lon="42.11437">
        <ele>132.133102</ele>
        <time>2021-09-10T09:13:39.838Z</time>
      </trkpt>
      <trkpt lat="42.48708" lon="42.11433">
        <ele>134.131342</ele>
        <time>2021-09-10T09:14:44.841Z</time>
      </trkpt>
      <trkpt lat="42.48875" lon="42.11264">
        <ele>143.829783</ele>
        <time>2021-09-10T09:16:03.843Z</time>
      </trkpt>
      <trkpt lat="42.49007" lon="42.11068">
        <ele>154.749502</ele>
        <time>2021-09-10T09:18:35.840Z</time>
      </trkpt>
      <trkpt lat="42.49196" lon="42.11078">
        <ele>163.712518</ele>
        <time>2021-09-10T09:20:23.819Z</time>
      </trkpt>
      <trkpt lat="42.49392" lon="42.11166">
        <ele>158.51521</ele>
        <time>2021-09-10T09:21:37.842Z</time>
      </trkpt>
      <trkpt lat="42.49574" lon="42.11313">
        <ele>158.092061</ele>
        <time>2021-09-10T09:22:57.851Z</time>
      </trkpt>
      <trkpt lat="42.49736" lon="42.11494">
        <ele>163.249253</ele>
        <time>2021-09-10T09:24:16.833Z</time>
      </trkpt>
      <trkpt lat="42.49916" lon="42.11622">
        <ele>163.153943</ele>
        <time>2021-09-10T09:25:26.847Z</time>
      </trkpt>
      <trkpt lat="42.50112" lon="42.11691">
        <ele>164.04959</ele>
        <time>2021-09-10T09:26:42.877Z</time>
      </trkpt>
      <trkpt lat="42.50318" lon="42.11756">
        <ele>163.775305</ele>
        <time>2021-09-10T09:28:03.838Z</time>
      </trkpt>
      <trkpt lat="42.50523" lon="42.1182">
        <ele>166.945372</ele>
        <time>2021-09-10T09:29:23.875Z</time>
      </trkpt>
      <trkpt lat="42.5073" lon="42.11889">
        <ele>168.936542</ele>
        <time>2021-09-10T09:30:41.835Z</time>
      </trkpt>
      <trkpt lat="42.50926" lon="42.11968">
        <ele>170.814939</ele>
        <time>2021-09-10T09:31:57.873Z</time>
      </trkpt>
      <trkpt lat="42.51071" lon="42.12031">
        <ele>166.21174</ele>
        <time>2021-09-10T09:53:57.923Z</time>
      </trkpt>
      <trkpt lat="42.51266" lon="42.12112">
        <ele>171.396856</ele>
        <time>2021-09-10T09:55:14.916Z</time>
      </trkpt>
      <trkpt lat="42.51455" lon="42.12243">
        <ele>174.417951</ele>
        <time>2021-09-10T09:56:32.917Z</time>
      </trkpt>
      <trkpt lat="42.51616" lon="42.12395">
        <ele>174.548046</ele>
        <time>2021-09-10T09:57:37.923Z</time>
      </trkpt>
      <trkpt lat="42.51784" lon="42.12543">
        <ele>176.451692</ele>
        <time>2021-09-10T09:58:43.918Z</time>
      </trkpt>
      <trkpt lat="42.51937" lon="42.1273">
        <ele>181.295716</ele>
        <time>2021-09-10T09:59:51.911Z</time>
      </trkpt>
      <trkpt lat="42.52114" lon="42.12865">
        <ele>182.639783</ele>
        <time>2021-09-10T10:00:53.962Z</time>
      </trkpt>
      <trkpt lat="42.52281" lon="42.13002">
        <ele>179.164201</ele>
        <time>2021-09-10T10:01:57.915Z</time>
      </trkpt>
      <trkpt lat="42.52455" lon="42.13153">
        <ele>183.645197</ele>
        <time>2021-09-10T10:02:57.913Z</time>
      </trkpt>
      <trkpt lat="42.52634" lon="42.13301">
        <ele>184.638237</ele>
        <time>2021-09-10T10:04:00.905Z</time>
      </trkpt>
      <trkpt lat="42.52806" lon="42.13446">
        <ele>183.599728</ele>
        <time>2021-09-10T10:05:01.917Z</time>
      </trkpt>
      <trkpt lat="42.52987" lon="42.13548">
        <ele>187.716091</ele>
        <time>2021-09-10T10:05:59.910Z</time>
      </trkpt>
      <trkpt lat="42.53171" lon="42.13654">
        <ele>187.468292</ele>
        <time>2021-09-10T10:07:00.922Z</time>
      </trkpt>
      <trkpt lat="42.53373" lon="42.13658">
        <ele>188.659163</ele>
        <time>2021-09-10T10:08:00.924Z</time>
      </trkpt>
      <trkpt lat="42.53534" lon="42.13827">
        <ele>190.783973</ele>
        <time>2021-09-10T10:09:05.946Z</time>
      </trkpt>
      <trkpt lat="42.53716" lon="42.13926">
        <ele>192.726172</ele>
        <time>2021-09-10T10:10:17.919Z</time>
      </trkpt>
      <trkpt lat="42.53934" lon="42.13934">
        <ele>192.253069</ele>
        <time>2021-09-10T10:11:24.906Z</time>
      </trkpt>
      <trkpt lat="42.54134" lon="42.13944">
        <ele>194.520839</ele>
        <time>2021-09-10T10:12:26.920Z</time>
      </trkpt>
      <trkpt lat="42.54325" lon="42.14044">
        <ele>195.564201</ele>
        <time>2021-09-10T10:13:30.925Z</time>
      </trkpt>
      <trkpt lat="42.5451" lon="42.141">
        <ele>196.7857</ele>
        <time>2021-09-10T10:14:29.909Z</time>
      </trkpt>
      <trkpt lat="42.54685" lon="42.14239">
        <ele>195.066818</ele>
        <time>2021-09-10T10:15:36.922Z</time>
      </trkpt>
      <trkpt lat="42.5489" lon="42.1421">
        <ele>203.539304</ele>
        <time>2021-09-10T10:16:48.908Z</time>
      </trkpt>
      <trkpt lat="42.55103" lon="42.14238">
        <ele>203.200672</ele>
        <time>2021-09-10T10:18:03.915Z</time>
      </trkpt>
      <trkpt lat="42.55279" lon="42.1413">
        <ele>202.90999</ele>
        <time>2021-09-10T10:19:10.921Z</time>
      </trkpt>
      <trkpt lat="42.55474" lon="42.14076">
        <ele>202.650196</ele>
        <time>2021-09-10T10:20:12.910Z</time>
      </trkpt>
      <trkpt lat="42.55656" lon="42.14143">
        <ele>204.561527</ele>
        <time>2021-09-10T10:21:12.917Z</time>
      </trkpt>
      <trkpt lat="42.55782" lon="42.14371">
        <ele>206.564393</ele>
        <time>2021-09-10T10:22:22.916Z</time>
      </trkpt>
      <trkpt lat="42.55956" lon="42.14487">
        <ele>210.481688</ele>
        <time>2021-09-10T10:23:32.903Z</time>
      </trkpt>
      <trkpt lat="42.56145" lon="42.14576">
        <ele>210.537273</ele>
        <time>2021-09-10T10:24:32.921Z</time>
      </trkpt>
      <trkpt lat="42.5636" lon="42.14555">
        <ele>211.32348</ele>
        <time>2021-09-10T10:25:38.899Z</time>
      </trkpt>
      <trkpt lat="42.56584" lon="42.14496">
        <ele>209.537442</ele>
        <time>2021-09-10T10:26:39.925Z</time>
      </trkpt>
      <trkpt lat="42.56778" lon="42.14521">
        <ele>212.659301</ele>
        <time>2021-09-10T10:27:40.923Z</time>
      </trkpt>
      <trkpt lat="42.5698" lon="42.14576">
        <ele>213.849854</ele>
        <time>2021-09-10T10:28:49.923Z</time>
      </trkpt>
      <trkpt lat="42.57072" lon="42.14464">
        <ele>216.681008</ele>
        <time>2021-09-10T10:29:55.912Z</time>
      </trkpt>
      <trkpt lat="42.5699" lon="42.14195">
        <ele>214.125332</ele>
        <time>2021-09-10T10:30:49.916Z</time>
      </trkpt>
      <trkpt lat="42.57069" lon="42.13965">
        <ele>213.661733</ele>
        <time>2021-09-10T10:31:55.900Z</time>
      </trkpt>
      <trkpt lat="42.57261" lon="42.13877">
        <ele>211.190735</ele>
        <time>2021-09-10T10:33:16.893Z</time>
      </trkpt>
      <trkpt lat="42.57464" lon="42.13831">
        <ele>213.995851</ele>
        <time>2021-09-10T10:34:27.883Z</time>
      </trkpt>
      <trkpt lat="42.57628" lon="42.1369">
        <ele>221.894386</ele>
        <time>2021-09-10T10:36:16.892Z</time>
      </trkpt>
      <trkpt lat="42.57796" lon="42.13772">
        <ele>225.573648</ele>
        <time>2021-09-10T10:37:33.893Z</time>
      </trkpt>
      <trkpt lat="42.57985" lon="42.13852">
        <ele>228.051954</ele>
        <time>2021-09-10T10:38:46.887Z</time>
      </trkpt>
      <trkpt lat="42.58181" lon="42.13977">
        <ele>226.209199</ele>
        <time>2021-09-10T10:40:05.879Z</time>
      </trkpt>
      <trkpt lat="42.58377" lon="42.14066">
        <ele>229.365241</ele>
        <time>2021-09-10T10:41:23.884Z</time>
      </trkpt>
      <trkpt lat="42.58571" lon="42.14147">
        <ele>230.797529</ele>
        <time>2021-09-10T10:42:36.892Z</time>
      </trkpt>
      <trkpt lat="42.58761" lon="42.14264">
        <ele>230.612348</ele>
        <time>2021-09-10T10:43:57.886Z</time>
      </trkpt>
      <trkpt lat="42.58924" lon="42.1445">
        <ele>230.407447</ele>
        <time>2021-09-10T10:45:14.898Z</time>
      </trkpt>
      <trkpt lat="42.59096" lon="42.14601">
        <ele>236.653054</ele>
        <time>2021-09-10T10:46:32.886Z</time>
      </trkpt>
      <trkpt lat="42.59264" lon="42.14758">
        <ele>238.651491</ele>
        <time>2021-09-10T10:47:49.895Z</time>
      </trkpt>
      <trkpt lat="42.59391" lon="42.14988">
        <ele>240.622283</ele>
        <time>2021-09-10T10:48:58.886Z</time>
      </trkpt>
      <trkpt lat="42.5952" lon="42.15218">
        <ele>243.530364</ele>
        <time>2021-09-10T10:50:13.883Z</time>
      </trkpt>
      <trkpt lat="42.59681" lon="42.15375">
        <ele>244.776972</ele>
        <time>2021-09-10T10:51:22.888Z</time>
      </trkpt>
      <trkpt lat="42.59865" lon="42.15471">
        <ele>245.125112</ele>
        <time>2021-09-10T10:52:38.892Z</time>
      </trkpt>
      <trkpt lat="42.60013" lon="42.15314">
        <ele>249.837023</ele>
        <time>2021-09-10T10:53:51.880Z</time>
      </trkpt>
      <trkpt lat="42.60107" lon="42.15073">
        <ele>249.643363</ele>
        <time>2021-09-10T10:55:14.886Z</time>
      </trkpt>
      <trkpt lat="42.60111" lon="42.14773">
        <ele>246.690426</ele>
        <time>2021-09-10T10:56:07.890Z</time>
      </trkpt>
      <trkpt lat="42.60043" lon="42.14445">
        <ele>240.712319</ele>
        <time>2021-09-10T10:56:45.899Z</time>
      </trkpt>
      <trkpt lat="42.59953" lon="42.14192">
        <ele>244.933401</ele>
        <time>2021-09-10T10:57:41.885Z</time>
      </trkpt>
      <trkpt lat="42.59898" lon="42.13929">
        <ele>242.686469</ele>
        <time>2021-09-10T10:58:37.886Z</time>
      </trkpt>
      <trkpt lat="42.59901" lon="42.13626">
        <ele>246.785751</ele>
        <time>2021-09-10T10:59:35.891Z</time>
      </trkpt>
      <trkpt lat="42.59958" lon="42.13363">
        <ele>246.240369</ele>
        <time>2021-09-10T11:00:23.887Z</time>
      </trkpt>
      <trkpt lat="42.60124" lon="42.13187">
        <ele>244.152398</ele>
        <time>2021-09-10T11:01:27.889Z</time>
      </trkpt>
      <trkpt lat="42.60293" lon="42.13051">
        <ele>246.399373</ele>
        <time>2021-09-10T11:02:28.896Z</time>
      </trkpt>
      <trkpt lat="42.60331" lon="42.12849">
        <ele>251.224841</ele>
        <time>2021-09-10T11:03:59.884Z</time>
      </trkpt>
      <trkpt lat="42.60363" lon="42.12607">
        <ele>253.911101</ele>
        <time>2021-09-10T11:05:22.881Z</time>
      </trkpt>
      <trkpt lat="42.60381" lon="42.12262">
        <ele>238.661754</ele>
        <time>2021-09-10T11:06:13.883Z</time>
      </trkpt>
      <trkpt lat="42.60538" lon="42.12017">
        <ele>225.740867</ele>
        <time>2021-09-10T11:06:53.889Z</time>
      </trkpt>
      <trkpt lat="42.60746" lon="42.12">
        <ele>230.248585</ele>
        <time>2021-09-10T11:08:08.888Z</time>
      </trkpt>
      <trkpt lat="42.60922" lon="42.12051">
        <ele>238.19385</ele>
        <time>2021-09-10T11:09:48.877Z</time>
      </trkpt>
      <trkpt lat="42.61103" lon="42.11936">
        <ele>240.542324</ele>
        <time>2021-09-10T11:10:53.895Z</time>
      </trkpt>
      <trkpt lat="42.61308" lon="42.11837">
        <ele>238.799938</ele>
        <time>2021-09-10T11:11:53.885Z</time>
      </trkpt>
      <trkpt lat="42.61377" lon="42.11622">
        <ele>248.862697</ele>
        <time>2021-09-10T11:13:29.881Z</time>
      </trkpt>
      <trkpt lat="42.61543" lon="42.11537">
        <ele>261.696566</ele>
        <time>2021-09-10T11:15:58.893Z</time>
      </trkpt>
      <trkpt lat="42.61717" lon="42.1144">
        <ele>280.055331</ele>
        <time>2021-09-10T11:18:42.887Z</time>
      </trkpt>
      <trkpt lat="42.6183" lon="42.11224">
        <ele>295.789022</ele>
        <time>2021-09-10T11:21:13.889Z</time>
      </trkpt>
      <trkpt lat="42.61863" lon="42.10932">
        <ele>295.767341</ele>
        <time>2021-09-10T11:22:01.884Z</time>
      </trkpt>
      <trkpt lat="42.61981" lon="42.10698">
        <ele>282.752256</ele>
        <time>2021-09-10T11:22:37.906Z</time>
      </trkpt>
      <trkpt lat="42.6197" lon="42.10479">
        <ele>284.295394</ele>
        <time>2021-09-10T11:24:24.880Z</time>
      </trkpt>
      <trkpt lat="42.61809" lon="42.10313">
        <ele>293.293472</ele>
        <time>2021-09-10T11:25:51.883Z</time>
      </trkpt>
      <trkpt lat="42.61706" lon="42.10062">
        <ele>282.065491</ele>
        <time>2021-09-10T11:26:13.890Z</time>
      </trkpt>
      <trkpt lat="42.61582" lon="42.0986">
        <ele>281.632979</ele>
        <time>2021-09-10T11:27:36.879Z</time>
      </trkpt>
      <trkpt lat="42.61371" lon="42.09634">
        <ele>275.265735</ele>
        <time>2021-09-10T11:28:12.884Z</time>
      </trkpt>
      <trkpt lat="42.6121" lon="42.09387">
        <ele>267.427832</ele>
        <time>2021-09-10T11:28:32.882Z</time>
      </trkpt>
      <trkpt lat="42.61026" lon="42.09265">
        <ele>278.935001</ele>
        <time>2021-09-10T11:30:38.880Z</time>
      </trkpt>
      <trkpt lat="42.60973" lon="42.09085">
        <ele>279.259652</ele>
        <time>2021-09-10T11:32:15.878Z</time>
      </trkpt>
      <trkpt lat="42.61077" lon="42.08969">
        <ele>262.687574</ele>
        <time>2021-09-10T11:33:01.886Z</time>
      </trkpt>
      <trkpt lat="42.60865" lon="42.08751">
        <ele>236.301154</ele>
        <time>2021-09-10T11:33:38.883Z</time>
      </trkpt>
      <trkpt lat="42.60832" lon="42.08409">
        <ele>215.597408</ele>
        <time>2021-09-10T11:34:12.889Z</time>
      </trkpt>
      <trkpt lat="42.60745" lon="42.08117">
        <ele>205.589725</ele>
        <time>2021-09-10T11:34:39.909Z</time>
      </trkpt>
      <trkpt lat="42.60751" lon="42.07798">
        <ele>197.046537</ele>
        <time>2021-09-10T11:35:22.891Z</time>
      </trkpt>
      <trkpt lat="42.60876" lon="42.07568">
        <ele>196.358749</ele>
        <time>2021-09-10T11:36:17.884Z</time>
      </trkpt>
      <trkpt lat="42.61073" lon="42.07518">
        <ele>199.651152</ele>
        <time>2021-09-10T11:37:23.881Z</time>
      </trkpt>
      <trkpt lat="42.61186" lon="42.07499">
        <ele>203.155541</ele>
        <time>2021-09-10T11:58:47.376Z</time>
      </trkpt>
      <trkpt lat="42.61386" lon="42.07405">
        <ele>199.695539</ele>
        <time>2021-09-10T11:59:56.372Z</time>
      </trkpt>
      <trkpt lat="42.616" lon="42.073">
        <ele>198.03582</ele>
        <time>2021-09-10T12:00:56.370Z</time>
      </trkpt>
      <trkpt lat="42.61805" lon="42.07213">
        <ele>203.159238</ele>
        <time>2021-09-10T12:02:05.382Z</time>
      </trkpt>
      <trkpt lat="42.62006" lon="42.07147">
        <ele>208.369371</ele>
        <time>2021-09-10T12:03:22.375Z</time>
      </trkpt>
      <trkpt lat="42.62213" lon="42.0708">
        <ele>212.005781</ele>
        <time>2021-09-10T12:04:35.378Z</time>
      </trkpt>
      <trkpt lat="42.6242" lon="42.0709">
        <ele>215.822664</ele>
        <time>2021-09-10T12:05:42.373Z</time>
      </trkpt>
      <trkpt lat="42.6258" lon="42.07207">
        <ele>218.702654</ele>
        <time>2021-09-10T12:06:48.344Z</time>
      </trkpt>
      <trkpt lat="42.62701" lon="42.07432">
        <ele>230.856337</ele>
        <time>2021-09-10T12:08:29.341Z</time>
      </trkpt>
      <trkpt lat="42.62828" lon="42.07673">
        <ele>234.587133</ele>
        <time>2021-09-10T12:09:54.362Z</time>
      </trkpt>
      <trkpt lat="42.62964" lon="42.07895">
        <ele>233.814325</ele>
        <time>2021-09-10T12:11:05.354Z</time>
      </trkpt>
      <trkpt lat="42.63108" lon="42.08073">
        <ele>239.139561</ele>
        <time>2021-09-10T12:12:09.368Z</time>
      </trkpt>
      <trkpt lat="42.63193" lon="42.08315">
        <ele>242.658199</ele>
        <time>2021-09-10T12:13:13.349Z</time>
      </trkpt>
      <trkpt lat="42.63371" lon="42.08429">
        <ele>239.159745</ele>
        <time>2021-09-10T12:14:17.343Z</time>
      </trkpt>
      <trkpt lat="42.63559" lon="42.08526">
        <ele>239.535689</ele>
        <time>2021-09-10T12:15:21.348Z</time>
      </trkpt>
      <trkpt lat="42.6373" lon="42.08662">
        <ele>247.295546</ele>
        <time>2021-09-10T12:16:34.351Z</time>
      </trkpt>
      <trkpt lat="42.63903" lon="42.0883">
        <ele>247.825257</ele>
        <time>2021-09-10T12:17:53.354Z</time>
      </trkpt>
      <trkpt lat="42.64084" lon="42.08967">
        <ele>251.286047</ele>
        <time>2021-09-10T12:19:09.341Z</time>
      </trkpt>
      <trkpt lat="42.6425" lon="42.09058">
        <ele>255.701241</ele>
        <time>2021-09-10T12:20:27.355Z</time>
      </trkpt>
      <trkpt lat="42.64391" lon="42.08845">
        <ele>248.122069</ele>
        <time>2021-09-10T12:21:20.346Z</time>
      </trkpt>
      <trkpt lat="42.64455" lon="42.0876">
        <ele>240.325751</ele>
        <time>2021-09-10T12:22:39.344Z</time>
      </trkpt>
      <trkpt lat="42.64502" lon="42.08636">
        <ele>251.497903</ele>
        <time>2021-09-10T12:34:25.003Z</time>
      </trkpt>
      <trkpt lat="42.64536" lon="42.08337">
        <ele>248.617503</ele>
        <time>2021-09-10T12:35:13.998Z</time>
      </trkpt>
      <trkpt lat="42.64555" lon="42.08044">
        <ele>244.591232</ele>
        <time>2021-09-10T12:36:10.973Z</time>
      </trkpt>
      <trkpt lat="42.64679" lon="42.07883">
        <ele>239.94631</ele>
        <time>2021-09-10T12:37:17.972Z</time>
      </trkpt>
      <trkpt lat="42.64897" lon="42.07863">
        <ele>237.564219</ele>
        <time>2021-09-10T12:38:17.978Z</time>
      </trkpt>
      <trkpt lat="42.65104" lon="42.07851">
        <ele>239.855722</ele>
        <time>2021-09-10T12:39:22.989Z</time>
      </trkpt>
      <trkpt lat="42.65298" lon="42.079">
        <ele>241.832149</ele>
        <time>2021-09-10T12:40:31.001Z</time>
      </trkpt>
      <trkpt lat="42.65468" lon="42.08027">
        <ele>244.66044</ele>
        <time>2021-09-10T12:41:32.977Z</time>
      </trkpt>
      <trkpt lat="42.65673" lon="42.08058">
        <ele>246.341893</ele>
        <time>2021-09-10T12:42:41.971Z</time>
      </trkpt>
      <trkpt lat="42.65905" lon="42.07961">
        <ele>241.776573</ele>
        <time>2021-09-10T12:43:26.995Z</time>
      </trkpt>
      <trkpt lat="42.66021" lon="42.07794">
        <ele>248.275955</ele>
        <time>2021-09-10T12:44:52.993Z</time>
      </trkpt>
      <trkpt lat="42.66194" lon="42.07673">
        <ele>253.871957</ele>
        <time>2021-09-10T12:46:38.005Z</time>
      </trkpt>
      <trkpt lat="42.66404" lon="42.07677">
        <ele>253.354603</ele>
        <time>2021-09-10T12:47:58.990Z</time>
      </trkpt>
      <trkpt lat="42.6661" lon="42.07743">
        <ele>254.111876</ele>
        <time>2021-09-10T12:49:11.026Z</time>
      </trkpt>
      <trkpt lat="42.66793" lon="42.07816">
        <ele>258.979775</ele>
        <time>2021-09-10T12:50:20.000Z</time>
      </trkpt>
      <trkpt lat="42.66959" lon="42.07977">
        <ele>255.478102</ele>
        <time>2021-09-10T12:51:08.996Z</time>
      </trkpt>
      <trkpt lat="42.67151" lon="42.08138">
        <ele>250.160602</ele>
        <time>2021-09-10T12:52:03.992Z</time>
      </trkpt>
      <trkpt lat="42.6735" lon="42.08198">
        <ele>252.662568</ele>
        <time>2021-09-10T12:53:14.002Z</time>
      </trkpt>
      <trkpt lat="42.67524" lon="42.0829">
        <ele>259.142421</ele>
        <time>2021-09-10T12:54:35.996Z</time>
      </trkpt>
      <trkpt lat="42.67667" lon="42.08479">
        <ele>271.533786</ele>
        <time>2021-09-10T12:56:24.004Z</time>
      </trkpt>
      <trkpt lat="42.6786" lon="42.08516">
        <ele>276.572137</ele>
        <time>2021-09-10T12:58:26.013Z</time>
      </trkpt>
      <trkpt lat="42.68033" lon="42.08509">
        <ele>284.284172</ele>
        <time>2021-09-10T13:05:49.015Z</time>
      </trkpt>
      <trkpt lat="42.68143" lon="42.08309">
        <ele>291.274577</ele>
        <time>2021-09-10T13:07:24.005Z</time>
      </trkpt>
      <trkpt lat="42.68312" lon="42.08164">
        <ele>298.04442</ele>
        <time>2021-09-10T13:09:11.984Z</time>
      </trkpt>
      <trkpt lat="42.68478" lon="42.08028">
        <ele>304.289841</ele>
        <time>2021-09-10T13:11:10.975Z</time>
      </trkpt>
      <trkpt lat="42.68641" lon="42.07878">
        <ele>297.717136</ele>
        <time>2021-09-10T13:12:32.996Z</time>
      </trkpt>
      <trkpt lat="42.68794" lon="42.07718">
        <ele>299.056337</ele>
        <time>2021-09-10T13:14:00.023Z</time>
      </trkpt>
      <trkpt lat="42.68921" lon="42.07521">
        <ele>306.093496</ele>
        <time>2021-09-10T13:15:59.049Z</time>
      </trkpt>
      <trkpt lat="42.69084" lon="42.07381">
        <ele>312.980988</ele>
        <time>2021-09-10T13:17:26.056Z</time>
      </trkpt>
      <trkpt lat="42.69258" lon="42.07253">
        <ele>308.461517</ele>
        <time>2021-09-10T13:18:57.973Z</time>
      </trkpt>
      <trkpt lat="42.69415" lon="42.07119">
        <ele>313.106308</ele>
        <time>2021-09-10T13:20:44.975Z</time>
      </trkpt>
      <trkpt lat="42.69525" lon="42.06941">
        <ele>326.229728</ele>
        <time>2021-09-10T13:23:03.002Z</time>
      </trkpt>
      <trkpt lat="42.69538" lon="42.06694">
        <ele>346.766513</ele>
        <time>2021-09-10T13:30:30.974Z</time>
      </trkpt>
      <trkpt lat="42.6966" lon="42.06534">
        <ele>367.795437</ele>
        <time>2021-09-10T13:36:54.976Z</time>
      </trkpt>
      <trkpt lat="42.69772" lon="42.0635">
        <ele>383.413489</ele>
        <time>2021-09-10T13:40:56.974Z</time>
      </trkpt>
      <trkpt lat="42.6991" lon="42.06224">
        <ele>395.083647</ele>
        <time>2021-09-10T13:43:16.005Z</time>
      </trkpt>
      <trkpt lat="42.70061" lon="42.06053">
        <ele>399.534956</ele>
        <time>2021-09-10T13:45:30.037Z</time>
      </trkpt>
      <trkpt lat="42.70222" lon="42.05934">
        <ele>384.750723</ele>
        <time>2021-09-10T13:47:12.991Z</time>
      </trkpt>
      <trkpt lat="42.70401" lon="42.05874">
        <ele>359.410763</ele>
        <time>2021-09-10T13:48:40.029Z</time>
      </trkpt>
      <trkpt lat="42.70591" lon="42.05795">
        <ele>335.292908</ele>
        <time>2021-09-10T13:50:09.018Z</time>
      </trkpt>
      <trkpt lat="42.70792" lon="42.057">
        <ele>345.89936</ele>
        <time>2021-09-10T13:51:02.000Z</time>
      </trkpt>
      <trkpt lat="42.71011" lon="42.05678">
        <ele>344.729198</ele>
        <time>2021-09-10T13:51:58.007Z</time>
      </trkpt>
      <trkpt lat="42.71203" lon="42.05649">
        <ele>350.476012</ele>
        <time>2021-09-10T13:53:20.995Z</time>
      </trkpt>
      <trkpt lat="42.71376" lon="42.05591">
        <ele>357.502342</ele>
        <time>2021-09-10T13:54:47.008Z</time>
      </trkpt>
      <trkpt lat="42.7152" lon="42.05404">
        <ele>357.853465</ele>
        <time>2021-09-10T13:55:36.007Z</time>
      </trkpt>
      <trkpt lat="42.71666" lon="42.05197">
        <ele>361.283691</ele>
        <time>2021-09-10T13:56:40.994Z</time>
      </trkpt>
      <trkpt lat="42.71813" lon="42.0498">
        <ele>362.137381</ele>
        <time>2021-09-10T13:57:37.991Z</time>
      </trkpt>
      <trkpt lat="42.71934" lon="42.04777">
        <ele>349.596859</ele>
        <time>2021-09-10T13:58:30.993Z</time>
      </trkpt>
      <trkpt lat="42.72144" lon="42.0472">
        <ele>349.510868</ele>
        <time>2021-09-10T13:59:48.007Z</time>
      </trkpt>
      <trkpt lat="42.72173" lon="42.04509">
        <ele>349.200001</ele>
        <time>2021-09-10T14:00:43.007Z</time>
      </trkpt>
      <trkpt lat="42.72235" lon="42.04301">
        <ele>338.101142</ele>
        <time>2021-09-10T14:01:26.010Z</time>
      </trkpt>
      <trkpt lat="42.72484" lon="42.04328">
        <ele>311.778703</ele>
        <time>2021-09-10T14:02:06.002Z</time>
      </trkpt>
      <trkpt lat="42.72549" lon="42.04005">
        <ele>287.884579</ele>
        <time>2021-09-10T14:02:40.995Z</time>
      </trkpt>
      <trkpt lat="42.72362" lon="42.03906">
        <ele>285.703374</ele>
        <time>2021-09-10T14:05:02.025Z</time>
      </trkpt>
      <trkpt lat="42.72255" lon="42.03879">
        <ele>296.139345</ele>
        <time>2021-09-10T14:11:28.991Z</time>
      </trkpt>
      <trkpt lat="42.72453" lon="42.03947">
        <ele>296.315778</ele>
        <time>2021-09-10T14:12:51.978Z</time>
      </trkpt>
      <trkpt lat="42.72265" lon="42.03893">
        <ele>289.882499</ele>
        <time>2021-09-10T14:18:59.984Z</time>
      </trkpt>
      <trkpt lat="42.7222" lon="42.03979">
        <ele>289.24476</ele>
        <time>2021-09-10T14:20:44.973Z</time>
      </trkpt>
      <trkpt lat="42.72149" lon="42.03837">
        <ele>286.675061</ele>
        <time>2021-09-10T14:21:46.992Z</time>
      </trkpt>
      <trkpt lat="42.71932" lon="42.03772">
        <ele>282.227837</ele>
        <time>2021-09-10T14:22:46.983Z</time>
      </trkpt>
      <trkpt lat="42.71839" lon="42.03857">
        <ele>282.227837</ele>
        <time>2021-09-10T14:26:53.713Z</time>
      </trkpt>
    </trkseg>
  </trk>
</gpx>